sensor_id;sensor_type;location;lat;lon;timestamp;temperature;humidity
4647;DHT22;2336;47.822;7.564;2023-04-15T00:00:37;9.80;99.90
4647;DHT22;2336;47.822;7.564;2023-04-15T00:03:03;9.80;99.90
4647;DHT22;2336;47.822;7.564;2023-04-15T00:05:30;9.70;99.90
4647;DHT22;2336;47.822;7.564;2023-04-15T00:07:58;9.70;99.90
4647;DHT22;2336;47.822;7.564;2023-04-15T00:10:25;9.70;99.90
4647;DHT22;2336;47.822;7.564;2023-04-15T00:12:52;9.70;99.90
4647;DHT22;2336;47.822;7.564;2023-04-15T00:15:20;9.70;99.90
4647;DHT22;2336;47.822;7.564;2023-04-15T00:17:49;9.70;99.90
4647;DHT22;2336;47.822;7.564;2023-04-15T00:20:16;9.70;99.90
4647;DHT22;2336;47.822;7.564;2023-04-15T00:22:43;9.70;99.90
4647;DHT22;2336;47.822;7.564;2023-04-15T00:25:09;9.70;99.90
4647;DHT22;2336;47.822;7.564;2023-04-15T00:27:36;9.70;99.90
4647;DHT22;2336;47.822;7.564;2023-04-15T00:30:04;9.70;99.90
4647;DHT22;2336;47.822;7.564;2023-04-15T00:32:32;9.80;99.90
4647;DHT22;2336;47.822;7.564;2023-04-15T00:34:59;9.90;99.90
4647;DHT22;2336;47.822;7.564;2023-04-15T00:37:26;9.90;99.90
4647;DHT22;2336;47.822;7.564;2023-04-15T00:39:53;9.90;99.90
4647;DHT22;2336;47.822;7.564;2023-04-15T00:42:20;9.90;99.90
4647;DHT22;2336;47.822;7.564;2023-04-15T00:44:47;9.90;99.90
4647;DHT22;2336;47.822;7.564;2023-04-15T00:47:15;9.90;99.90
4647;DHT22;2336;47.822;7.564;2023-04-15T00:49:44;9.80;99.90
4647;DHT22;2336;47.822;7.564;2023-04-15T00:52:10;9.70;99.90
4647;DHT22;2336;47.822;7.564;2023-04-15T00:54:37;9.70;99.90
4647;DHT22;2336;47.822;7.564;2023-04-15T00:57:04;9.70;99.90
4647;DHT22;2336;47.822;7.564;2023-04-15T00:59:32;9.70;99.90
4647;DHT22;2336;47.822;7.564;2023-04-15T01:01:59;9.70;99.90
4647;DHT22;2336;47.822;7.564;2023-04-15T01:04:26;9.70;99.90
4647;DHT22;2336;47.822;7.564;2023-04-15T01:06:54;9.70;99.90
4647;DHT22;2336;47.822;7.564;2023-04-15T01:09:21;9.70;99.90
4647;DHT22;2336;47.822;7.564;2023-04-15T01:11:48;9.70;99.90
4647;DHT22;2336;47.822;7.564;2023-04-15T01:14:15;9.70;99.90
4647;DHT22;2336;47.822;7.564;2023-04-15T01:16:42;9.60;99.90
4647;DHT22;2336;47.822;7.564;2023-04-15T01:19:10;9.50;99.90
4647;DHT22;2336;47.822;7.564;2023-04-15T01:21:37;9.50;99.90
4647;DHT22;2336;47.822;7.564;2023-04-15T01:24:08;9.50;99.90
4647;DHT22;2336;47.822;7.564;2023-04-15T01:26:37;9.40;99.90
4647;DHT22;2336;47.822;7.564;2023-04-15T01:29:03;9.40;99.90
4647;DHT22;2336;47.822;7.564;2023-04-15T01:31:32;9.50;99.90
4647;DHT22;2336;47.822;7.564;2023-04-15T01:33:59;9.40;99.90
4647;DHT22;2336;47.822;7.564;2023-04-15T01:36:25;9.50;99.90
4647;DHT22;2336;47.822;7.564;2023-04-15T01:38:52;9.50;99.90
4647;DHT22;2336;47.822;7.564;2023-04-15T01:41:20;9.60;99.90
4647;DHT22;2336;47.822;7.564;2023-04-15T01:43:49;9.70;99.90
4647;DHT22;2336;47.822;7.564;2023-04-15T01:46:17;9.70;99.90
4647;DHT22;2336;47.822;7.564;2023-04-15T01:48:43;9.80;99.90
4647;DHT22;2336;47.822;7.564;2023-04-15T01:51:10;9.70;99.90
4647;DHT22;2336;47.822;7.564;2023-04-15T01:53:37;9.70;99.90
4647;DHT22;2336;47.822;7.564;2023-04-15T01:56:04;9.80;99.90
4647;DHT22;2336;47.822;7.564;2023-04-15T01:58:31;9.70;99.90
4647;DHT22;2336;47.822;7.564;2023-04-15T02:00:59;9.70;99.90
4647;DHT22;2336;47.822;7.564;2023-04-15T02:03:27;9.70;99.90
4647;DHT22;2336;47.822;7.564;2023-04-15T02:05:54;9.70;99.90
4647;DHT22;2336;47.822;7.564;2023-04-15T02:08:21;9.70;99.90
4647;DHT22;2336;47.822;7.564;2023-04-15T02:10:48;9.70;99.90
4647;DHT22;2336;47.822;7.564;2023-04-15T02:13:15;9.70;99.90
4647;DHT22;2336;47.822;7.564;2023-04-15T02:15:46;9.70;99.90
4647;DHT22;2336;47.822;7.564;2023-04-15T02:18:14;9.70;99.90
4647;DHT22;2336;47.822;7.564;2023-04-15T02:20:41;9.70;99.90
4647;DHT22;2336;47.822;7.564;2023-04-15T02:23:09;9.70;99.90
4647;DHT22;2336;47.822;7.564;2023-04-15T02:25:36;9.70;99.90
4647;DHT22;2336;47.822;7.564;2023-04-15T02:28:03;9.60;99.90
4647;DHT22;2336;47.822;7.564;2023-04-15T02:30:30;9.60;99.90
4647;DHT22;2336;47.822;7.564;2023-04-15T02:32:57;9.50;99.90
4647;DHT22;2336;47.822;7.564;2023-04-15T02:35:26;9.50;99.90
4647;DHT22;2336;47.822;7.564;2023-04-15T02:37:52;9.40;99.90
4647;DHT22;2336;47.822;7.564;2023-04-15T02:40:19;9.50;99.90
4647;DHT22;2336;47.822;7.564;2023-04-15T02:42:46;9.50;99.90
4647;DHT22;2336;47.822;7.564;2023-04-15T02:45:13;9.50;99.90
4647;DHT22;2336;47.822;7.564;2023-04-15T02:47:40;9.50;99.90
4647;DHT22;2336;47.822;7.564;2023-04-15T02:50:10;9.40;99.90
4647;DHT22;2336;47.822;7.564;2023-04-15T02:52:39;9.40;99.90
4647;DHT22;2336;47.822;7.564;2023-04-15T02:55:07;9.40;99.90
4647;DHT22;2336;47.822;7.564;2023-04-15T02:57:34;9.30;99.90
4647;DHT22;2336;47.822;7.564;2023-04-15T03:00:04;9.40;99.90
4647;DHT22;2336;47.822;7.564;2023-04-15T03:02:33;9.40;99.90
4647;DHT22;2336;47.822;7.564;2023-04-15T03:05:00;9.40;99.90
4647;DHT22;2336;47.822;7.564;2023-04-15T03:07:27;9.40;99.90
4647;DHT22;2336;47.822;7.564;2023-04-15T03:09:55;9.50;99.90
4647;DHT22;2336;47.822;7.564;2023-04-15T03:12:22;9.50;99.90
4647;DHT22;2336;47.822;7.564;2023-04-15T03:14:48;9.40;99.90
4647;DHT22;2336;47.822;7.564;2023-04-15T03:17:15;9.40;99.90
4647;DHT22;2336;47.822;7.564;2023-04-15T03:19:43;9.40;99.90
4647;DHT22;2336;47.822;7.564;2023-04-15T03:22:09;9.40;99.90
4647;DHT22;2336;47.822;7.564;2023-04-15T03:24:36;9.30;99.90
4647;DHT22;2336;47.822;7.564;2023-04-15T03:27:04;9.30;99.90
4647;DHT22;2336;47.822;7.564;2023-04-15T03:29:32;9.30;99.90
4647;DHT22;2336;47.822;7.564;2023-04-15T03:31:59;9.30;99.90
4647;DHT22;2336;47.822;7.564;2023-04-15T03:34:26;9.30;99.90
4647;DHT22;2336;47.822;7.564;2023-04-15T03:36:52;9.30;99.90
4647;DHT22;2336;47.822;7.564;2023-04-15T03:39:19;9.40;99.90
4647;DHT22;2336;47.822;7.564;2023-04-15T03:41:46;9.30;99.90
4647;DHT22;2336;47.822;7.564;2023-04-15T03:44:14;9.40;99.90
4647;DHT22;2336;47.822;7.564;2023-04-15T03:46:41;9.30;99.90
4647;DHT22;2336;47.822;7.564;2023-04-15T03:49:07;9.30;99.90
4647;DHT22;2336;47.822;7.564;2023-04-15T03:51:34;9.30;99.90
4647;DHT22;2336;47.822;7.564;2023-04-15T03:54:01;9.30;99.90
4647;DHT22;2336;47.822;7.564;2023-04-15T03:56:28;9.30;99.90
4647;DHT22;2336;47.822;7.564;2023-04-15T03:58:55;9.30;99.90
4647;DHT22;2336;47.822;7.564;2023-04-15T04:01:23;9.30;99.90
4647;DHT22;2336;47.822;7.564;2023-04-15T04:03:49;9.20;99.90
4647;DHT22;2336;47.822;7.564;2023-04-15T04:06:16;9.20;99.90
4647;DHT22;2336;47.822;7.564;2023-04-15T04:08:43;9.20;99.90
4647;DHT22;2336;47.822;7.564;2023-04-15T04:11:10;9.20;99.90
4647;DHT22;2336;47.822;7.564;2023-04-15T04:13:37;9.10;99.90
4647;DHT22;2336;47.822;7.564;2023-04-15T04:16:04;9.10;99.90
4647;DHT22;2336;47.822;7.564;2023-04-15T04:18:32;9.10;99.90
4647;DHT22;2336;47.822;7.564;2023-04-15T04:20:59;9.10;99.90
4647;DHT22;2336;47.822;7.564;2023-04-15T04:23:26;9.10;99.90
4647;DHT22;2336;47.822;7.564;2023-04-15T04:25:53;9.00;99.90
4647;DHT22;2336;47.822;7.564;2023-04-15T04:28:19;8.90;99.90
4647;DHT22;2336;47.822;7.564;2023-04-15T04:30:46;8.90;99.90
4647;DHT22;2336;47.822;7.564;2023-04-15T04:33:13;8.90;99.90
4647;DHT22;2336;47.822;7.564;2023-04-15T04:35:41;8.90;99.90
4647;DHT22;2336;47.822;7.564;2023-04-15T04:38:08;8.80;99.90
4647;DHT22;2336;47.822;7.564;2023-04-15T04:40:35;8.90;99.90
4647;DHT22;2336;47.822;7.564;2023-04-15T04:43:02;8.80;99.90
4647;DHT22;2336;47.822;7.564;2023-04-15T04:45:28;8.90;99.90
4647;DHT22;2336;47.822;7.564;2023-04-15T04:47:55;8.90;99.90
4647;DHT22;2336;47.822;7.564;2023-04-15T04:50:22;8.90;99.90
4647;DHT22;2336;47.822;7.564;2023-04-15T04:52:50;8.90;99.90
4647;DHT22;2336;47.822;7.564;2023-04-15T04:55:17;8.80;99.90
4647;DHT22;2336;47.822;7.564;2023-04-15T04:57:44;8.70;99.90
4647;DHT22;2336;47.822;7.564;2023-04-15T05:00:11;8.80;99.90
4647;DHT22;2336;47.822;7.564;2023-04-15T05:02:38;8.70;99.90
4647;DHT22;2336;47.822;7.564;2023-04-15T05:05:06;8.50;99.90
4647;DHT22;2336;47.822;7.564;2023-04-15T05:07:33;8.60;99.90
4647;DHT22;2336;47.822;7.564;2023-04-15T05:10:02;8.50;99.90
4647;DHT22;2336;47.822;7.564;2023-04-15T05:12:31;8.40;99.90
4647;DHT22;2336;47.822;7.564;2023-04-15T05:14:57;8.30;99.90
4647;DHT22;2336;47.822;7.564;2023-04-15T05:17:24;8.30;99.90
4647;DHT22;2336;47.822;7.564;2023-04-15T05:19:51;8.30;99.90
4647;DHT22;2336;47.822;7.564;2023-04-15T05:22:18;8.20;99.90
4647;DHT22;2336;47.822;7.564;2023-04-15T05:24:45;8.10;99.90
4647;DHT22;2336;47.822;7.564;2023-04-15T05:27:13;8.10;99.90
4647;DHT22;2336;47.822;7.564;2023-04-15T05:29:40;8.10;99.90
4647;DHT22;2336;47.822;7.564;2023-04-15T05:32:07;8.10;99.90
4647;DHT22;2336;47.822;7.564;2023-04-15T05:34:33;8.10;99.90
4647;DHT22;2336;47.822;7.564;2023-04-15T05:37:00;8.00;99.90
4647;DHT22;2336;47.822;7.564;2023-04-15T05:39:27;8.10;99.90
4647;DHT22;2336;47.822;7.564;2023-04-15T05:41:54;8.00;99.90
4647;DHT22;2336;47.822;7.564;2023-04-15T05:44:23;8.00;99.90
4647;DHT22;2336;47.822;7.564;2023-04-15T05:46:50;8.00;99.90
4647;DHT22;2336;47.822;7.564;2023-04-15T05:49:17;8.00;99.90
4647;DHT22;2336;47.822;7.564;2023-04-15T05:51:46;8.10;99.90
4647;DHT22;2336;47.822;7.564;2023-04-15T05:54:13;8.10;99.90
4647;DHT22;2336;47.822;7.564;2023-04-15T05:56:40;8.10;99.90
4647;DHT22;2336;47.822;7.564;2023-04-15T05:59:06;8.20;99.90
4647;DHT22;2336;47.822;7.564;2023-04-15T06:01:34;8.20;99.90
4647;DHT22;2336;47.822;7.564;2023-04-15T06:04:01;8.20;99.90
4647;DHT22;2336;47.822;7.564;2023-04-15T06:06:28;8.20;99.90
4647;DHT22;2336;47.822;7.564;2023-04-15T06:08:56;8.20;99.90
4647;DHT22;2336;47.822;7.564;2023-04-15T06:11:23;8.30;99.90
4647;DHT22;2336;47.822;7.564;2023-04-15T06:13:51;8.30;99.90
4647;DHT22;2336;47.822;7.564;2023-04-15T06:16:17;8.40;99.90
4647;DHT22;2336;47.822;7.564;2023-04-15T06:18:45;8.40;99.90
4647;DHT22;2336;47.822;7.564;2023-04-15T06:21:12;8.40;99.90
4647;DHT22;2336;47.822;7.564;2023-04-15T06:23:39;8.50;99.90
4647;DHT22;2336;47.822;7.564;2023-04-15T06:26:06;8.60;99.90
4647;DHT22;2336;47.822;7.564;2023-04-15T06:28:33;8.60;99.90
4647;DHT22;2336;47.822;7.564;2023-04-15T06:30:59;8.70;99.90
4647;DHT22;2336;47.822;7.564;2023-04-15T06:33:27;8.70;99.90
4647;DHT22;2336;47.822;7.564;2023-04-15T06:35:55;8.80;99.90
4647;DHT22;2336;47.822;7.564;2023-04-15T06:38:21;8.90;99.90
4647;DHT22;2336;47.822;7.564;2023-04-15T06:40:48;8.90;99.90
4647;DHT22;2336;47.822;7.564;2023-04-15T06:43:15;9.00;99.90
4647;DHT22;2336;47.822;7.564;2023-04-15T06:45:42;9.10;99.90
4647;DHT22;2336;47.822;7.564;2023-04-15T06:48:09;9.20;99.90
4647;DHT22;2336;47.822;7.564;2023-04-15T06:50:36;9.30;99.90
4647;DHT22;2336;47.822;7.564;2023-04-15T06:53:07;9.40;99.90
4647;DHT22;2336;47.822;7.564;2023-04-15T06:55:33;9.50;99.90
4647;DHT22;2336;47.822;7.564;2023-04-15T06:58:00;9.50;99.90
4647;DHT22;2336;47.822;7.564;2023-04-15T07:00:27;9.50;99.90
4647;DHT22;2336;47.822;7.564;2023-04-15T07:02:54;9.60;99.90
4647;DHT22;2336;47.822;7.564;2023-04-15T07:05:20;9.70;99.90
4647;DHT22;2336;47.822;7.564;2023-04-15T07:07:47;9.70;99.90
4647;DHT22;2336;47.822;7.564;2023-04-15T07:10:16;9.70;99.90
4647;DHT22;2336;47.822;7.564;2023-04-15T07:12:42;9.90;99.90
4647;DHT22;2336;47.822;7.564;2023-04-15T07:15:10;9.90;99.90
4647;DHT22;2336;47.822;7.564;2023-04-15T07:17:37;9.90;99.90
4647;DHT22;2336;47.822;7.564;2023-04-15T07:20:04;10.00;99.90
4647;DHT22;2336;47.822;7.564;2023-04-15T07:22:31;10.20;99.90
4647;DHT22;2336;47.822;7.564;2023-04-15T07:24:58;10.30;99.90
4647;DHT22;2336;47.822;7.564;2023-04-15T07:27:26;10.30;99.90
4647;DHT22;2336;47.822;7.564;2023-04-15T07:29:53;10.40;99.90
4647;DHT22;2336;47.822;7.564;2023-04-15T07:32:19;10.40;99.90
4647;DHT22;2336;47.822;7.564;2023-04-15T07:34:46;10.50;99.90
4647;DHT22;2336;47.822;7.564;2023-04-15T07:37:13;10.50;99.90
4647;DHT22;2336;47.822;7.564;2023-04-15T07:39:40;10.40;99.90
4647;DHT22;2336;47.822;7.564;2023-04-15T07:42:07;10.50;99.90
4647;DHT22;2336;47.822;7.564;2023-04-15T07:44:35;10.60;99.90
4647;DHT22;2336;47.822;7.564;2023-04-15T07:47:02;10.50;99.90
4647;DHT22;2336;47.822;7.564;2023-04-15T07:49:29;10.40;99.90
4647;DHT22;2336;47.822;7.564;2023-04-15T07:51:55;10.40;99.90
4647;DHT22;2336;47.822;7.564;2023-04-15T07:54:24;10.50;99.90
4647;DHT22;2336;47.822;7.564;2023-04-15T07:56:51;10.50;99.90
4647;DHT22;2336;47.822;7.564;2023-04-15T07:59:18;10.40;99.90
4647;DHT22;2336;47.822;7.564;2023-04-15T08:01:46;10.30;99.90
4647;DHT22;2336;47.822;7.564;2023-04-15T08:04:13;10.30;99.90
4647;DHT22;2336;47.822;7.564;2023-04-15T08:06:40;10.20;99.90
4647;DHT22;2336;47.822;7.564;2023-04-15T08:09:06;10.20;99.90
4647;DHT22;2336;47.822;7.564;2023-04-15T08:11:33;10.20;99.90
4647;DHT22;2336;47.822;7.564;2023-04-15T08:14:00;10.30;99.90
4647;DHT22;2336;47.822;7.564;2023-04-15T08:16:27;10.30;99.90
4647;DHT22;2336;47.822;7.564;2023-04-15T08:18:56;10.20;99.90
4647;DHT22;2336;47.822;7.564;2023-04-15T08:21:23;10.10;99.90
4647;DHT22;2336;47.822;7.564;2023-04-15T08:23:51;10.30;99.90
4647;DHT22;2336;47.822;7.564;2023-04-15T08:26:18;10.30;99.90
4647;DHT22;2336;47.822;7.564;2023-04-15T08:28:45;10.40;99.90
4647;DHT22;2336;47.822;7.564;2023-04-15T08:31:13;10.60;99.90
4647;DHT22;2336;47.822;7.564;2023-04-15T08:33:40;10.80;99.90
4647;DHT22;2336;47.822;7.564;2023-04-15T08:36:09;11.10;99.90
4647;DHT22;2336;47.822;7.564;2023-04-15T08:38:35;11.10;99.90
4647;DHT22;2336;47.822;7.564;2023-04-15T08:41:06;11.00;99.90
4647;DHT22;2336;47.822;7.564;2023-04-15T08:43:34;11.10;99.90
4647;DHT22;2336;47.822;7.564;2023-04-15T08:46:01;10.80;99.90
4647;DHT22;2336;47.822;7.564;2023-04-15T08:48:32;10.80;99.90
4647;DHT22;2336;47.822;7.564;2023-04-15T08:50:59;11.00;99.90
4647;DHT22;2336;47.822;7.564;2023-04-15T08:53:28;11.10;99.90
4647;DHT22;2336;47.822;7.564;2023-04-15T08:55:56;11.00;99.90
4647;DHT22;2336;47.822;7.564;2023-04-15T08:58:24;11.00;99.90
4647;DHT22;2336;47.822;7.564;2023-04-15T09:00:50;10.90;99.90
4647;DHT22;2336;47.822;7.564;2023-04-15T09:03:17;10.90;99.90
4647;DHT22;2336;47.822;7.564;2023-04-15T09:05:46;10.90;99.90
4647;DHT22;2336;47.822;7.564;2023-04-15T09:08:13;11.00;99.90
4647;DHT22;2336;47.822;7.564;2023-04-15T09:10:41;10.90;99.90
4647;DHT22;2336;47.822;7.564;2023-04-15T09:13:08;10.90;99.90
4647;DHT22;2336;47.822;7.564;2023-04-15T09:15:37;10.80;99.90
4647;DHT22;2336;47.822;7.564;2023-04-15T09:18:04;10.70;99.90
4647;DHT22;2336;47.822;7.564;2023-04-15T09:20:38;10.60;99.90
4647;DHT22;2336;47.822;7.564;2023-04-15T09:23:11;10.60;99.90
4647;DHT22;2336;47.822;7.564;2023-04-15T09:25:40;10.80;99.90
4647;DHT22;2336;47.822;7.564;2023-04-15T09:28:08;11.00;99.90
4647;DHT22;2336;47.822;7.564;2023-04-15T09:30:35;11.10;99.90
4647;DHT22;2336;47.822;7.564;2023-04-15T09:33:03;11.10;99.90
4647;DHT22;2336;47.822;7.564;2023-04-15T09:35:33;11.20;99.90
4647;DHT22;2336;47.822;7.564;2023-04-15T09:38:02;11.00;99.90
4647;DHT22;2336;47.822;7.564;2023-04-15T09:40:33;11.10;99.90
4647;DHT22;2336;47.822;7.564;2023-04-15T09:43:03;11.20;99.90
4647;DHT22;2336;47.822;7.564;2023-04-15T09:45:30;11.40;99.90
4647;DHT22;2336;47.822;7.564;2023-04-15T09:47:58;11.50;99.90
4647;DHT22;2336;47.822;7.564;2023-04-15T09:50:27;11.40;99.90
4647;DHT22;2336;47.822;7.564;2023-04-15T09:52:55;11.30;99.90
4647;DHT22;2336;47.822;7.564;2023-04-15T09:55:22;11.10;99.90
4647;DHT22;2336;47.822;7.564;2023-04-15T09:57:49;11.10;99.90
4647;DHT22;2336;47.822;7.564;2023-04-15T10:00:17;11.20;99.90
4647;DHT22;2336;47.822;7.564;2023-04-15T10:02:44;11.20;99.90
4647;DHT22;2336;47.822;7.564;2023-04-15T10:05:14;11.20;99.90
4647;DHT22;2336;47.822;7.564;2023-04-15T10:07:42;11.30;99.90
4647;DHT22;2336;47.822;7.564;2023-04-15T10:10:10;11.30;99.90
4647;DHT22;2336;47.822;7.564;2023-04-15T10:12:37;11.30;99.90
4647;DHT22;2336;47.822;7.564;2023-04-15T10:15:11;11.30;99.90
4647;DHT22;2336;47.822;7.564;2023-04-15T10:17:43;11.30;99.90
4647;DHT22;2336;47.822;7.564;2023-04-15T10:20:10;11.30;99.90
4647;DHT22;2336;47.822;7.564;2023-04-15T10:22:39;11.40;99.90
4647;DHT22;2336;47.822;7.564;2023-04-15T10:25:08;11.50;99.90
4647;DHT22;2336;47.822;7.564;2023-04-15T10:27:36;11.80;99.90
4647;DHT22;2336;47.822;7.564;2023-04-15T10:30:03;11.70;99.90
4647;DHT22;2336;47.822;7.564;2023-04-15T10:32:31;11.80;99.90
4647;DHT22;2336;47.822;7.564;2023-04-15T10:35:00;11.90;99.90
4647;DHT22;2336;47.822;7.564;2023-04-15T10:37:33;11.80;99.90
4647;DHT22;2336;47.822;7.564;2023-04-15T10:40:00;11.90;99.90
4647;DHT22;2336;47.822;7.564;2023-04-15T10:42:33;11.90;99.90
4647;DHT22;2336;47.822;7.564;2023-04-15T10:45:00;12.00;99.90
4647;DHT22;2336;47.822;7.564;2023-04-15T10:47:28;12.00;99.90
4647;DHT22;2336;47.822;7.564;2023-04-15T10:50:00;12.00;99.90
4647;DHT22;2336;47.822;7.564;2023-04-15T10:52:28;12.00;99.90
4647;DHT22;2336;47.822;7.564;2023-04-15T10:55:02;12.20;99.90
4647;DHT22;2336;47.822;7.564;2023-04-15T10:57:33;12.40;99.90
4647;DHT22;2336;47.822;7.564;2023-04-15T11:00:08;12.50;99.90
4647;DHT22;2336;47.822;7.564;2023-04-15T11:02:40;12.50;99.90
4647;DHT22;2336;47.822;7.564;2023-04-15T11:05:08;12.80;99.90
4647;DHT22;2336;47.822;7.564;2023-04-15T11:07:36;13.10;99.90
4647;DHT22;2336;47.822;7.564;2023-04-15T11:10:48;13.20;99.90
4647;DHT22;2336;47.822;7.564;2023-04-15T11:13:03;13.50;99.90
4647;DHT22;2336;47.822;7.564;2023-04-15T11:15:32;13.50;99.90
4647;DHT22;2336;47.822;7.564;2023-04-15T11:18:09;13.40;99.90
4647;DHT22;2336;47.822;7.564;2023-04-15T11:20:38;13.60;99.90
4647;DHT22;2336;47.822;7.564;2023-04-15T11:23:06;13.70;99.90
4647;DHT22;2336;47.822;7.564;2023-04-15T11:25:34;13.80;99.90
4647;DHT22;2336;47.822;7.564;2023-04-15T11:28:02;13.70;99.90
4647;DHT22;2336;47.822;7.564;2023-04-15T11:30:30;13.60;99.90
4647;DHT22;2336;47.822;7.564;2023-04-15T11:32:59;13.80;99.90
4647;DHT22;2336;47.822;7.564;2023-04-15T11:35:26;13.50;99.90
4647;DHT22;2336;47.822;7.564;2023-04-15T11:37:54;13.70;99.90
4647;DHT22;2336;47.822;7.564;2023-04-15T11:40:22;13.80;99.90
4647;DHT22;2336;47.822;7.564;2023-04-15T11:43:03;13.90;99.90
4647;DHT22;2336;47.822;7.564;2023-04-15T11:45:30;14.10;99.90
4647;DHT22;2336;47.822;7.564;2023-04-15T11:48:07;14.00;99.90
4647;DHT22;2336;47.822;7.564;2023-04-15T11:50:34;14.10;99.90
4647;DHT22;2336;47.822;7.564;2023-04-15T11:53:03;14.20;99.90
4647;DHT22;2336;47.822;7.564;2023-04-15T11:55:31;14.10;99.90
4647;DHT22;2336;47.822;7.564;2023-04-15T11:58:08;14.00;99.90
4647;DHT22;2336;47.822;7.564;2023-04-15T12:00:36;14.30;99.90
4647;DHT22;2336;47.822;7.564;2023-04-15T12:03:16;14.30;99.90
4647;DHT22;2336;47.822;7.564;2023-04-15T12:06:12;14.40;99.90
4647;DHT22;2336;47.822;7.564;2023-04-15T12:08:58;14.40;99.90
4647;DHT22;2336;47.822;7.564;2023-04-15T12:11:30;14.60;99.90
4647;DHT22;2336;47.822;7.564;2023-04-15T12:13:58;14.50;99.90
4647;DHT22;2336;47.822;7.564;2023-04-15T12:16:28;14.40;99.90
4647;DHT22;2336;47.822;7.564;2023-04-15T12:18:57;14.20;99.90
4647;DHT22;2336;47.822;7.564;2023-04-15T12:21:25;14.30;99.90
4647;DHT22;2336;47.822;7.564;2023-04-15T12:23:53;14.40;99.90
4647;DHT22;2336;47.822;7.564;2023-04-15T12:26:27;14.30;99.90
4647;DHT22;2336;47.822;7.564;2023-04-15T12:28:54;14.30;99.90
4647;DHT22;2336;47.822;7.564;2023-04-15T12:31:21;14.30;99.90
4647;DHT22;2336;47.822;7.564;2023-04-15T12:33:48;14.20;99.90
4647;DHT22;2336;47.822;7.564;2023-04-15T12:36:15;14.30;99.90
4647;DHT22;2336;47.822;7.564;2023-04-15T12:38:42;14.50;99.90
4647;DHT22;2336;47.822;7.564;2023-04-15T12:41:09;14.80;99.90
4647;DHT22;2336;47.822;7.564;2023-04-15T12:43:37;14.90;99.90
4647;DHT22;2336;47.822;7.564;2023-04-15T12:46:03;14.80;99.90
4647;DHT22;2336;47.822;7.564;2023-04-15T12:48:31;14.80;99.90
4647;DHT22;2336;47.822;7.564;2023-04-15T12:50:58;14.70;99.90
4647;DHT22;2336;47.822;7.564;2023-04-15T12:53:25;14.70;99.90
4647;DHT22;2336;47.822;7.564;2023-04-15T12:55:52;15.00;99.90
4647;DHT22;2336;47.822;7.564;2023-04-15T12:58:18;14.60;99.90
4647;DHT22;2336;47.822;7.564;2023-04-15T13:00:46;14.70;99.90
4647;DHT22;2336;47.822;7.564;2023-04-15T13:03:13;14.90;99.90
4647;DHT22;2336;47.822;7.564;2023-04-15T13:05:40;14.90;99.90
4647;DHT22;2336;47.822;7.564;2023-04-15T13:08:07;14.80;99.90
4647;DHT22;2336;47.822;7.564;2023-04-15T13:10:34;14.70;99.90
4647;DHT22;2336;47.822;7.564;2023-04-15T13:13:02;14.60;99.90
4647;DHT22;2336;47.822;7.564;2023-04-15T13:15:29;14.50;99.90
4647;DHT22;2336;47.822;7.564;2023-04-15T13:17:58;14.50;99.90
4647;DHT22;2336;47.822;7.564;2023-04-15T13:20:25;14.40;99.90
4647;DHT22;2336;47.822;7.564;2023-04-15T13:22:53;14.20;99.90
4647;DHT22;2336;47.822;7.564;2023-04-15T13:25:20;14.20;99.90
4647;DHT22;2336;47.822;7.564;2023-04-15T13:27:47;14.10;99.90
4647;DHT22;2336;47.822;7.564;2023-04-15T13:30:14;14.10;99.90
4647;DHT22;2336;47.822;7.564;2023-04-15T13:32:41;14.20;99.90
4647;DHT22;2336;47.822;7.564;2023-04-15T13:35:10;14.10;99.90
4647;DHT22;2336;47.822;7.564;2023-04-15T13:37:37;14.30;99.90
4647;DHT22;2336;47.822;7.564;2023-04-15T13:40:05;14.40;99.90
4647;DHT22;2336;47.822;7.564;2023-04-15T13:42:32;14.50;99.90
4647;DHT22;2336;47.822;7.564;2023-04-15T13:44:59;14.40;99.90
4647;DHT22;2336;47.822;7.564;2023-04-15T13:47:26;14.50;99.90
4647;DHT22;2336;47.822;7.564;2023-04-15T13:49:55;14.40;99.90
4647;DHT22;2336;47.822;7.564;2023-04-15T13:52:24;14.70;99.90
4647;DHT22;2336;47.822;7.564;2023-04-15T13:54:51;14.90;99.90
4647;DHT22;2336;47.822;7.564;2023-04-15T13:57:19;14.90;99.90
4647;DHT22;2336;47.822;7.564;2023-04-15T13:59:46;14.70;99.90
4647;DHT22;2336;47.822;7.564;2023-04-15T14:02:14;14.40;99.90
4647;DHT22;2336;47.822;7.564;2023-04-15T14:04:41;14.20;99.90
4647;DHT22;2336;47.822;7.564;2023-04-15T14:07:11;14.10;99.90
4647;DHT22;2336;47.822;7.564;2023-04-15T14:09:43;14.00;99.90
4647;DHT22;2336;47.822;7.564;2023-04-15T14:12:13;13.80;99.90
4647;DHT22;2336;47.822;7.564;2023-04-15T14:14:40;13.80;99.90
4647;DHT22;2336;47.822;7.564;2023-04-15T14:17:07;13.80;99.90
4647;DHT22;2336;47.822;7.564;2023-04-15T14:19:35;13.70;99.90
4647;DHT22;2336;47.822;7.564;2023-04-15T14:22:01;13.80;99.90
4647;DHT22;2336;47.822;7.564;2023-04-15T14:24:29;14.00;99.90
4647;DHT22;2336;47.822;7.564;2023-04-15T14:26:57;14.30;99.90
4647;DHT22;2336;47.822;7.564;2023-04-15T14:29:24;14.40;99.90
4647;DHT22;2336;47.822;7.564;2023-04-15T14:31:51;14.50;99.90
4647;DHT22;2336;47.822;7.564;2023-04-15T14:34:17;14.60;99.90
4647;DHT22;2336;47.822;7.564;2023-04-15T14:36:46;14.70;99.90
4647;DHT22;2336;47.822;7.564;2023-04-15T14:39:13;14.80;99.90
4647;DHT22;2336;47.822;7.564;2023-04-15T14:41:40;14.90;99.90
4647;DHT22;2336;47.822;7.564;2023-04-15T14:44:08;14.80;99.90
4647;DHT22;2336;47.822;7.564;2023-04-15T14:46:36;14.70;99.90
4647;DHT22;2336;47.822;7.564;2023-04-15T14:49:03;14.70;99.90
4647;DHT22;2336;47.822;7.564;2023-04-15T14:51:30;14.90;99.90
4647;DHT22;2336;47.822;7.564;2023-04-15T14:53:57;14.90;99.90
4647;DHT22;2336;47.822;7.564;2023-04-15T14:56:24;14.80;99.90
4647;DHT22;2336;47.822;7.564;2023-04-15T14:58:50;14.80;99.90
4647;DHT22;2336;47.822;7.564;2023-04-15T15:01:20;14.70;99.90
4647;DHT22;2336;47.822;7.564;2023-04-15T15:03:47;14.70;99.90
4647;DHT22;2336;47.822;7.564;2023-04-15T15:06:14;14.70;99.90
4647;DHT22;2336;47.822;7.564;2023-04-15T15:08:41;14.70;99.90
4647;DHT22;2336;47.822;7.564;2023-04-15T15:11:07;14.90;99.90
4647;DHT22;2336;47.822;7.564;2023-04-15T15:13:34;14.90;99.90
4647;DHT22;2336;47.822;7.564;2023-04-15T15:16:01;14.90;99.90
4647;DHT22;2336;47.822;7.564;2023-04-15T15:18:29;14.90;99.90
4647;DHT22;2336;47.822;7.564;2023-04-15T15:20:56;14.80;99.90
4647;DHT22;2336;47.822;7.564;2023-04-15T15:23:23;14.70;99.90
4647;DHT22;2336;47.822;7.564;2023-04-15T15:25:50;14.50;99.90
4647;DHT22;2336;47.822;7.564;2023-04-15T15:28:17;14.40;99.90
4647;DHT22;2336;47.822;7.564;2023-04-15T15:30:43;14.50;99.90
4647;DHT22;2336;47.822;7.564;2023-04-15T15:33:10;14.70;99.90
4647;DHT22;2336;47.822;7.564;2023-04-15T15:35:38;14.90;99.90
4647;DHT22;2336;47.822;7.564;2023-04-15T15:38:05;14.90;99.90
4647;DHT22;2336;47.822;7.564;2023-04-15T15:40:32;14.80;99.90
4647;DHT22;2336;47.822;7.564;2023-04-15T15:42:58;14.50;99.90
4647;DHT22;2336;47.822;7.564;2023-04-15T15:45:25;14.40;99.90
4647;DHT22;2336;47.822;7.564;2023-04-15T15:47:52;14.30;99.90
4647;DHT22;2336;47.822;7.564;2023-04-15T15:50:21;14.20;99.90
4647;DHT22;2336;47.822;7.564;2023-04-15T15:52:49;14.00;99.90
4647;DHT22;2336;47.822;7.564;2023-04-15T15:55:16;13.90;99.90
4647;DHT22;2336;47.822;7.564;2023-04-15T15:57:43;13.90;99.90
4647;DHT22;2336;47.822;7.564;2023-04-15T16:00:11;14.00;99.90
4647;DHT22;2336;47.822;7.564;2023-04-15T16:02:37;14.00;99.90
4647;DHT22;2336;47.822;7.564;2023-04-15T16:05:05;14.00;99.90
4647;DHT22;2336;47.822;7.564;2023-04-15T16:07:31;14.10;99.90
4647;DHT22;2336;47.822;7.564;2023-04-15T16:09:59;14.20;99.90
4647;DHT22;2336;47.822;7.564;2023-04-15T16:12:26;14.40;99.90